Time;durP1;ratioP1;P1;durP2;ratioP2;P2;SDS_P1;SDS_P2;PMS_P1;PMS_P2;Temp;Humidity;BMP_temperature;BMP_pressure;BME280_temperature;BME280_humidity;BME280_pressure;Samples;Min_cycle;Max_cycle;Signal;HPM_P1;HPM_P2
2023/01/23 00:00:29;;;;;;;;;61.75;44.75;;;;;6.25;100.00;103065.31;5037837;28;45276;-77
2023/01/23 00:02:55;;;;;;;;;56.00;43.00;;;;;6.11;100.00;103065.91;5020045;28;45426;-75
2023/01/23 00:05:21;;;;;;;;;52.75;39.75;;;;;6.04;100.00;103069.81;5038479;28;45614;-76
2023/01/23 00:07:46;;;;;;;;;63.25;44.50;;;;;6.07;100.00;103058.88;5018022;28;45350;-76
2023/01/23 00:10:12;;;;;;;;;58.00;40.00;;;;;6.09;100.00;103059.69;5018203;28;45152;-76
2023/01/23 00:12:41;;;;;;;;;46.75;41.25;;;;;6.24;100.00;103064.44;5026177;28;45390;-75
2023/01/23 00:15:07;;;;;;;;;55.25;43.00;;;;;6.08;100.00;103060.63;5016689;28;46818;-76
2023/01/23 00:17:33;;;;;;;;;64.25;48.50;;;;;6.20;100.00;103068.22;5013143;28;45485;-76
2023/01/23 00:19:59;;;;;;;;;53.75;43.50;;;;;6.21;100.00;103067.25;5021029;28;45400;-76
2023/01/23 00:22:24;;;;;;;;;65.25;44.00;;;;;6.14;100.00;103060.38;5016527;28;45434;-76
2023/01/23 00:24:49;;;;;;;;;63.75;44.50;;;;;6.10;100.00;103061.44;5018757;28;45298;-76
2023/01/23 00:27:15;;;;;;;;;52.75;41.50;;;;;6.19;100.00;103055.69;5011810;28;45390;-76
2023/01/23 00:29:40;;;;;;;;;63.75;48.00;;;;;6.16;100.00;103057.59;5019257;28;45362;-76
2023/01/23 00:32:05;;;;;;;;;55.75;41.25;;;;;6.08;100.00;103063.31;5008103;28;45566;-76
2023/01/23 00:34:31;;;;;;;;;63.50;46.50;;;;;6.06;100.00;103069.75;5017166;28;46966;-76
2023/01/23 00:36:56;;;;;;;;;65.00;49.00;;;;;5.96;100.00;103069.22;5012189;28;45340;-76
2023/01/23 00:39:22;;;;;;;;;45.25;30.25;;;;;5.98;100.00;103066.47;5018456;28;45430;-77
2023/01/23 00:41:48;;;;;;;;;56.50;45.75;;;;;6.01;100.00;103066.34;5012946;28;45820;-76
2023/01/23 00:44:15;;;;;;;;;53.50;43.00;;;;;6.04;100.00;103069.81;5023044;28;45404;-76
2023/01/23 00:46:40;;;;;;;;;54.25;46.25;;;;;6.04;100.00;103066.22;5012381;28;45425;-76
2023/01/23 00:49:06;;;;;;;;;61.50;45.75;;;;;6.08;100.00;103068.72;5018678;28;45426;-75
2023/01/23 00:51:32;;;;;;;;;58.25;43.50;;;;;6.21;100.00;103069.97;5028640;28;45503;-76
2023/01/23 00:53:58;;;;;;;;;66.75;50.50;;;;;6.25;100.00;103068.91;5018131;28;45439;-76
2023/01/23 00:56:23;;;;;;;;;61.00;47.00;;;;;6.31;100.00;103065.06;5014164;28;45441;-75
2023/01/23 00:58:49;;;;;;;;;50.00;42.50;;;;;6.25;100.00;103077.00;5022100;28;45356;-75
2023/01/23 01:01:15;;;;;;;;;64.25;45.75;;;;;6.08;100.00;103071.41;5028516;28;45746;-77
2023/01/23 01:03:42;;;;;;;;;58.25;42.25;;;;;6.07;100.00;103077.75;5020755;28;45347;-76
2023/01/23 01:06:08;;;;;;;;;62.25;42.50;;;;;6.06;100.00;103062.53;5015088;28;45485;-75
2023/01/23 01:08:33;;;;;;;;;52.50;42.25;;;;;6.16;100.00;103071.97;5009852;28;45490;-76
2023/01/23 01:10:59;;;;;;;;;62.50;46.00;;;;;6.11;100.00;103068.59;5015596;28;45437;-75
2023/01/23 01:13:25;;;;;;;;;57.75;45.75;;;;;6.17;100.00;103073.75;5038240;28;47116;-75
2023/01/23 01:15:52;;;;;;;;;61.75;49.00;;;;;6.11;100.00;103062.31;5020043;28;45434;-75
2023/01/23 01:18:18;;;;;;;;;63.50;43.25;;;;;6.05;100.00;103060.78;5014236;28;45410;-75
2023/01/23 01:20:44;;;;;;;;;55.75;40.50;;;;;6.16;100.00;103066.59;5018477;28;45413;-75
2023/01/23 01:23:10;;;;;;;;;49.75;29.25;;;;;6.09;100.00;103062.38;5014792;28;46456;-76
2023/01/23 01:25:36;;;;;;;;;63.50;48.25;;;;;5.92;100.00;103055.94;5012415;28;45335;-76
2023/01/23 01:28:02;;;;;;;;;63.75;43.50;;;;;5.97;100.00;103057.50;5016302;28;45331;-75
2023/01/23 01:30:29;;;;;;;;;55.25;45.75;;;;;6.06;100.00;103053.56;5027563;28;45400;-76
2023/01/23 01:32:55;;;;;;;;;64.25;49.50;;;;;6.30;100.00;103063.31;5017174;28;45251;-76
2023/01/23 01:35:22;;;;;;;;;54.00;42.25;;;;;6.25;100.00;103058.13;5012528;28;45406;-76
2023/01/23 01:37:47;;;;;;;;;63.75;45.00;;;;;6.47;100.00;103062.59;5016867;28;45305;-76
2023/01/23 01:40:16;;;;;;;;;61.25;45.75;;;;;6.44;100.00;103054.63;5033721;28;45412;-76
2023/01/23 01:42:48;;;;;;;;;60.50;43.00;;;;;6.58;100.00;103050.38;5034147;28;47119;-76
2023/01/23 01:45:59;;;;;;;;;52.50;43.25;;;;;6.65;100.00;103049.16;5015460;28;45653;-76
2023/01/23 01:48:34;;;;;;;;;53.25;43.25;;;;;6.53;100.00;103044.31;5016001;28;45445;-76
2023/01/23 01:51:01;;;;;;;;;65.75;49.75;;;;;6.47;100.00;103041.88;5036205;28;45412;-76
2023/01/23 01:53:29;;;;;;;;;52.50;42.00;;;;;6.58;100.00;103044.97;5021856;28;46875;-76
2023/01/23 01:55:56;;;;;;;;;50.25;38.25;;;;;6.61;100.00;103035.88;5034610;28;45411;-76
2023/01/23 01:58:21;;;;;;;;;55.50;45.25;;;;;6.59;100.00;103043.16;5021401;28;45299;-76
2023/01/23 02:00:47;;;;;;;;;54.50;41.25;;;;;6.61;100.00;103043.97;5016382;28;45387;-77
2023/01/23 02:03:15;;;;;;;;;59.50;43.50;;;;;6.64;100.00;103046.56;5019737;28;46701;-78
2023/01/23 02:05:47;;;;;;;;;56.75;46.50;;;;;6.51;100.00;103039.91;5013825;28;45446;-76
2023/01/23 02:08:21;;;;;;;;;50.25;43.75;;;;;6.61;100.00;103052.97;5010134;28;45433;-77
2023/01/23 02:10:48;;;;;;;;;53.75;40.50;;;;;6.39;100.00;103046.72;5014794;28;45347;-76
2023/01/23 02:13:29;;;;;;;;;55.50;43.25;;;;;6.43;100.00;103042.09;5013612;28;45482;-76
2023/01/23 02:15:56;;;;;;;;;60.00;45.25;;;;;6.41;100.00;103043.97;5015155;28;45334;-76
2023/01/23 02:18:22;;;;;;;;;56.00;44.75;;;;;6.36;100.00;103054.06;5013594;28;45276;-76
2023/01/23 02:20:50;;;;;;;;;50.25;38.25;;;;;6.17;100.00;103041.34;5015630;28;45477;-77
2023/01/23 02:23:46;;;;;;;;;61.25;44.75;;;;;6.24;100.00;103050.94;5013872;28;46816;-76
2023/01/23 02:26:17;;;;;;;;;65.75;45.75;;;;;6.30;100.00;103040.81;5007554;28;45534;-78
2023/01/23 02:28:46;;;;;;;;;55.75;41.50;;;;;6.31;100.00;103048.00;5014061;28;45468;-77
2023/01/23 02:31:12;;;;;;;;;60.00;43.25;;;;;6.35;100.00;103044.22;5012901;28;45639;-77
2023/01/23 02:33:37;;;;;;;;;65.25;47.75;;;;;6.16;100.00;103044.13;5036685;28;47076;-76
2023/01/23 02:36:07;;;;;;;;;54.25;42.75;;;;;6.30;100.00;103040.81;5012236;28;45382;-77
2023/01/23 02:38:43;;;;;;;;;53.00;42.75;;;;;6.25;100.00;103049.13;5031445;28;45295;-77
2023/01/23 02:41:12;;;;;;;;;71.50;49.25;;;;;6.09;100.00;103048.88;5012881;28;45405;-77
2023/01/23 02:43:38;;;;;;;;;66.00;48.00;;;;;6.10;100.00;103050.66;5021173;28;45418;-77
2023/01/23 02:46:06;;;;;;;;;63.25;47.75;;;;;6.12;100.00;103059.56;5012692;28;45473;-77
2023/01/23 02:48:31;;;;;;;;;59.75;42.00;;;;;6.10;100.00;103056.06;5028518;28;45503;-77
2023/01/23 02:50:56;;;;;;;;;60.25;44.25;;;;;6.08;100.00;103051.66;5015469;28;45247;-77
2023/01/23 02:53:22;;;;;;;;;66.50;43.75;;;;;6.25;100.00;103060.81;5021389;28;45343;-77
2023/01/23 02:55:48;;;;;;;;;51.25;44.50;;;;;6.20;100.00;103061.97;5013258;28;45361;-77
2023/01/23 03:00:57;;;;;;;;;63.50;46.25;;;;;6.12;100.00;103062.28;5017041;28;45314;-77
2023/01/23 03:03:23;;;;;;;;;68.25;47.25;;;;;5.91;100.00;103055.06;5022505;28;46676;-74
2023/01/23 03:05:49;;;;;;;;;70.25;46.25;;;;;6.02;100.00;103057.31;5015165;28;45570;-76
2023/01/23 03:08:14;;;;;;;;;51.25;43.50;;;;;5.99;100.00;103046.66;5036854;28;45263;-76
2023/01/23 03:10:39;;;;;;;;;64.25;47.25;;;;;6.04;100.00;103058.13;5019345;28;45389;-76
2023/01/23 03:13:06;;;;;;;;;64.75;46.25;;;;;6.10;100.00;103056.06;5015828;28;45411;-76
2023/01/23 03:15:33;;;;;;;;;58.50;44.50;;;;;6.05;100.00;103058.06;5017331;28;45561;-76
2023/01/23 03:17:59;;;;;;;;;64.00;45.25;;;;;6.10;100.00;103049.78;5012750;28;45616;-76
2023/01/23 03:20:25;;;;;;;;;58.00;45.00;;;;;6.18;100.00;103056.63;5018636;28;45361;-76
2023/01/23 03:22:51;;;;;;;;;72.00;49.75;;;;;6.13;100.00;103057.75;5010927;28;46734;-76
2023/01/23 03:25:17;;;;;;;;;70.25;44.50;;;;;6.20;100.00;103062.84;5015103;28;45170;-76
2023/01/23 03:27:42;;;;;;;;;54.75;43.50;;;;;6.28;100.00;103053.53;5017163;28;45449;-76
2023/01/23 03:30:14;;;;;;;;;62.50;44.25;;;;;6.38;100.00;103057.59;5015964;28;45521;-77
2023/01/23 03:32:41;;;;;;;;;45.50;34.50;;;;;6.28;100.00;103051.72;5018265;28;46364;-77
2023/01/23 03:35:09;;;;;;;;;58.00;45.50;;;;;6.38;100.00;103054.88;5014899;28;45369;-77
2023/01/23 03:37:35;;;;;;;;;65.75;43.50;;;;;6.52;100.00;103052.47;5014655;28;45393;-76
2023/01/23 03:42:45;;;;;;;;;59.00;46.00;;;;;6.42;100.00;103061.94;5018201;28;45897;-77
2023/01/23 03:45:11;;;;;;;;;52.75;42.50;;;;;6.28;100.00;103053.53;5030864;28;45232;-77
2023/01/23 03:47:36;;;;;;;;;49.25;39.50;;;;;6.25;100.00;103050.00;5014997;28;45491;-77
2023/01/23 03:50:02;;;;;;;;;53.50;35.00;;;;;6.33;100.00;103059.59;5016744;28;45433;-77
2023/01/23 03:52:27;;;;;;;;;55.50;44.25;;;;;6.44;100.00;103063.59;5036398;28;47141;-76
2023/01/23 03:54:53;;;;;;;;;57.25;47.50;;;;;6.23;100.00;103062.69;5017491;28;45421;-76
2023/01/23 03:57:18;;;;;;;;;56.75;42.50;;;;;6.27;100.00;103055.34;5018595;28;45457;-77
2023/01/23 03:59:43;;;;;;;;;58.25;40.75;;;;;6.44;100.00;103054.63;5034169;28;45402;-76
2023/01/23 04:02:09;;;;;;;;;63.25;49.00;;;;;6.45;100.00;103048.28;5018304;28;45512;-76
2023/01/23 04:04:35;;;;;;;;;68.00;49.00;;;;;6.41;100.00;103052.06;5032253;28;45387;-77
2023/01/23 04:07:02;;;;;;;;;52.75;44.50;;;;;6.13;100.00;103064.03;5020001;28;45367;-77
2023/01/23 04:09:27;;;;;;;;;51.75;41.75;;;;;6.36;100.00;103043.25;5017334;28;45279;-76
2023/01/23 04:11:54;;;;;;;;;52.75;38.50;;;;;6.33;100.00;103046.13;5014825;28;45397;-77
2023/01/23 04:14:20;;;;;;;;;61.75;47.25;;;;;6.27;100.00;103054.47;5015696;28;45208;-77
2023/01/23 04:16:46;;;;;;;;;61.50;46.50;;;;;6.35;100.00;103036.13;5015807;28;45353;-77
2023/01/23 04:19:11;;;;;;;;;56.00;41.00;;;;;6.41;100.00;103049.38;5035584;28;45375;-77
2023/01/23 04:21:36;;;;;;;;;70.00;50.00;;;;;6.36;100.00;103056.75;5015640;28;45460;-77
2023/01/23 04:24:02;;;;;;;;;70.75;48.50;;;;;6.42;100.00;103061.94;5014522;28;45371;-77
2023/01/23 04:26:27;;;;;;;;;58.25;44.50;;;;;6.65;100.00;103059.97;5016362;28;45425;-77
2023/01/23 04:28:53;;;;;;;;;59.00;45.00;;;;;6.66;100.00;103055.44;5033789;28;45485;-77
2023/01/23 04:31:18;;;;;;;;;60.00;47.25;;;;;6.41;100.00;103057.47;5009969;28;46527;-76
2023/01/23 04:33:43;;;;;;;;;66.00;48.00;;;;;6.34;100.00;103070.34;5017830;28;45315;-76
2023/01/23 04:36:10;;;;;;;;;66.75;49.50;;;;;6.45;100.00;103072.56;5012991;28;45504;-76
2023/01/23 04:38:35;;;;;;;;;63.25;47.00;;;;;6.50;100.00;103073.28;5038498;28;45402;-76
2023/01/23 04:41:01;;;;;;;;;70.25;49.50;;;;;6.35;100.00;103063.13;5034404;28;46972;-77
2023/01/23 04:43:27;;;;;;;;;62.00;41.25;;;;;6.26;100.00;103067.09;5020899;28;45445;-77
2023/01/23 04:45:54;;;;;;;;;64.50;46.75;;;;;6.26;100.00;103072.50;5014058;28;45418;-77
2023/01/23 04:48:19;;;;;;;;;67.25;48.50;;;;;6.34;100.00;103069.47;5015750;28;45302;-77
2023/01/23 04:50:45;;;;;;;;;70.00;45.75;;;;;6.41;100.00;103070.97;5015332;28;46165;-77
2023/01/23 04:53:10;;;;;;;;;62.00;44.25;;;;;6.58;100.00;103068.41;5022599;28;45254;-76
2023/01/23 04:55:35;;;;;;;;;68.00;53.00;;;;;6.63;100.00;103071.81;5015730;28;45383;-76
2023/01/23 04:58:01;;;;;;;;;71.75;46.25;;;;;6.43;100.00;103064.53;5020597;28;45164;-76
2023/01/23 05:00:27;;;;;;;;;68.75;49.75;;;;;6.58;100.00;103074.69;5016824;28;46428;-77
2023/01/23 05:02:53;;;;;;;;;68.75;53.00;;;;;6.35;100.00;103084.72;5032776;28;45439;-76
2023/01/23 05:05:20;;;;;;;;;67.00;49.50;;;;;6.54;100.00;103075.78;5016246;28;45321;-76
2023/01/23 05:07:46;;;;;;;;;67.75;50.75;;;;;6.44;100.00;103068.13;5020244;28;45538;-76
2023/01/23 05:10:13;;;;;;;;;60.50;46.75;;;;;6.47;100.00;103084.19;5017695;28;46069;-76
2023/01/23 05:12:38;;;;;;;;;56.25;42.00;;;;;6.52;100.00;103071.38;5011965;28;45185;-78
2023/01/23 05:15:05;;;;;;;;;67.50;48.50;;;;;6.50;100.00;103075.97;5021374;28;45398;-79
2023/01/23 05:17:30;;;;;;;;;61.00;47.75;;;;;6.44;100.00;103073.50;5012648;28;45311;-77
2023/01/23 05:19:55;;;;;;;;;61.75;48.75;;;;;6.43;100.00;103082.59;5020510;28;45303;-79
2023/01/23 05:22:21;;;;;;;;;59.00;47.25;;;;;6.52;100.00;103090.28;5008094;28;45385;-77
2023/01/23 05:24:47;;;;;;;;;68.75;53.75;;;;;6.41;100.00;103087.16;5024413;28;45391;-77
2023/01/23 05:27:12;;;;;;;;;55.25;42.50;;;;;6.20;100.00;103088.94;5010291;28;45488;-77
2023/01/23 05:29:38;;;;;;;;;70.75;49.25;;;;;6.24;100.00;103095.97;5019479;28;45452;-76
2023/01/23 05:32:03;;;;;;;;;62.50;46.25;;;;;6.50;100.00;103094.88;5012935;28;47615;-76
2023/01/23 05:34:28;;;;;;;;;63.75;46.50;;;;;6.58;100.00;103095.41;5018446;28;45404;-77
2023/01/23 05:36:54;;;;;;;;;69.00;51.75;;;;;6.32;100.00;103087.53;5016172;28;45641;-76
2023/01/23 05:39:19;;;;;;;;;67.25;49.00;;;;;6.56;100.00;103091.91;5019459;28;46221;-77
2023/01/23 05:41:44;;;;;;;;;68.75;52.50;;;;;6.46;100.00;103085.13;5012446;28;45512;-76
2023/01/23 05:44:10;;;;;;;;;56.50;41.00;;;;;6.48;100.00;103099.47;5022657;28;45527;-76
2023/01/23 05:46:35;;;;;;;;;62.50;48.75;;;;;6.33;100.00;103111.78;5010863;28;45467;-76
2023/01/23 05:49:00;;;;;;;;;67.00;48.00;;;;;6.35;100.00;103115.31;5021970;28;45310;-78
2023/01/23 05:51:31;;;;;;;;;70.50;49.75;;;;;6.43;100.00;103113.13;5017432;28;45556;-76
2023/01/23 05:54:00;;;;;;;;;69.75;53.75;;;;;6.46;100.00;103125.66;5020800;28;45548;-77
2023/01/23 05:56:26;;;;;;;;;66.25;48.25;;;;;6.49;100.00;103118.31;5008398;28;45454;-77
2023/01/23 05:58:52;;;;;;;;;63.75;46.75;;;;;6.37;100.00;103123.31;5026924;28;46636;-75
2023/01/23 06:01:18;;;;;;;;;67.25;45.75;;;;;6.61;100.00;103128.59;5029529;28;45403;-77
2023/01/23 06:03:44;;;;;;;;;54.25;38.00;;;;;6.45;100.00;103127.47;5017553;28;45386;-78
2023/01/23 06:06:09;;;;;;;;;51.00;34.50;;;;;6.20;100.00;103116.81;5014359;28;45348;-76
2023/01/23 06:08:35;;;;;;;;;49.50;38.00;;;;;6.13;100.00;103115.31;5015536;28;46613;-77
2023/01/23 06:11:00;;;;;;;;;43.00;33.25;;;;;6.29;100.00;103126.34;5013187;28;45415;-76
2023/01/23 06:13:26;;;;;;;;;54.00;42.75;;;;;6.46;100.00;103131.06;5014400;28;44896;-78
2023/01/23 06:15:51;;;;;;;;;59.75;43.75;;;;;6.33;100.00;103132.50;5012728;28;45334;-76
2023/01/23 06:18:17;;;;;;;;;44.00;38.00;;;;;6.18;100.00;103124.09;5012840;28;45425;-76
2023/01/23 06:20:42;;;;;;;;;50.00;34.75;;;;;6.24;100.00;103122.97;5014856;28;45306;-76
2023/01/23 06:23:08;;;;;;;;;45.00;38.75;;;;;6.27;100.00;103130.94;5013104;28;45416;-78
2023/01/23 06:25:33;;;;;;;;;49.75;38.25;;;;;6.47;100.00;103140.91;5011013;28;45371;-77
2023/01/23 06:27:58;;;;;;;;;47.00;36.75;;;;;6.33;100.00;103136.09;5019994;28;45490;-79
2023/01/23 06:30:24;;;;;;;;;52.00;39.75;;;;;6.14;100.00;103121.56;5009034;28;45396;-77
2023/01/23 06:32:49;;;;;;;;;62.75;47.25;;;;;6.06;100.00;103138.09;5011671;28;45444;-77
2023/01/23 06:35:15;;;;;;;;;54.50;40.25;;;;;6.08;100.00;103138.88;5012112;28;45430;-77
2023/01/23 06:37:40;;;;;;;;;51.75;43.00;;;;;6.09;100.00;103127.16;5035912;28;45501;-77
2023/01/23 06:40:06;;;;;;;;;34.50;29.25;;;;;6.24;100.00;103131.06;5012150;28;45427;-76
2023/01/23 06:42:32;;;;;;;;;65.00;44.50;;;;;6.25;100.00;103119.31;5017831;28;45415;-78
2023/01/23 06:44:57;;;;;;;;;59.75;43.25;;;;;6.24;100.00;103131.94;5019417;28;45247;-76
2023/01/23 06:47:23;;;;;;;;;58.50;44.75;;;;;6.21;100.00;103129.34;5016566;28;45334;-76
2023/01/23 06:49:48;;;;;;;;;52.00;43.25;;;;;6.22;100.00;103132.94;5015425;28;45458;-77
2023/01/23 06:52:13;;;;;;;;;54.25;43.25;;;;;6.14;100.00;103127.84;5021434;28;45360;-76
2023/01/23 06:54:39;;;;;;;;;66.75;45.50;;;;;6.12;100.00;103118.06;5018702;28;45240;-75
2023/01/23 06:57:04;;;;;;;;;38.25;26.75;;;;;6.16;100.00;103142.16;5020136;28;45529;-76
2023/01/23 06:59:30;;;;;;;;;48.00;39.75;;;;;6.22;100.00;103141.91;5023155;28;45298;-77
2023/01/23 07:01:55;;;;;;;;;51.00;38.25;;;;;6.25;100.00;103130.13;5021059;28;45358;-75
2023/01/23 07:04:20;;;;;;;;;57.25;43.00;;;;;6.14;100.00;103129.66;5019293;28;45245;-76
2023/01/23 07:06:46;;;;;;;;;61.75;47.25;;;;;6.20;100.00;103122.22;5021414;28;45761;-76
2023/01/23 07:09:11;;;;;;;;;54.75;41.50;;;;;6.18;100.00;103120.50;5014198;28;45363;-77
2023/01/23 07:11:38;;;;;;;;;65.75;46.75;;;;;6.21;100.00;103133.88;5018381;28;45612;-78
2023/01/23 07:14:03;;;;;;;;;49.00;38.25;;;;;6.30;100.00;103117.31;5019937;28;45442;-76
2023/01/23 07:16:28;;;;;;;;;62.00;47.50;;;;;6.32;100.00;103131.63;5017666;28;45306;-78
2023/01/23 07:18:57;;;;;;;;;61.25;44.00;;;;;6.33;100.00;103122.59;5016050;28;45415;-77
2023/01/23 07:21:23;;;;;;;;;62.00;45.00;;;;;6.41;100.00;103115.06;5013855;28;45336;-77
2023/01/23 07:23:49;;;;;;;;;55.50;43.00;;;;;6.47;100.00;103105.81;5023979;28;45198;-78
2023/01/23 07:26:15;;;;;;;;;67.00;44.75;;;;;6.72;100.00;103120.00;5014262;28;48021;-76
2023/01/23 07:28:40;;;;;;;;;60.00;47.00;;;;;6.80;100.00;103139.47;5021486;28;45769;-77
2023/01/23 07:31:05;;;;;;;;;58.50;43.00;;;;;6.72;100.00;103135.38;5014398;28;45833;-77
2023/01/23 07:33:31;;;;;;;;;58.00;43.00;;;;;6.80;100.00;103136.78;5016758;28;45402;-74
2023/01/23 07:35:56;;;;;;;;;62.50;44.75;;;;;6.80;100.00;103134.06;5036096;28;46896;-76
2023/01/23 07:38:22;;;;;;;;;52.25;42.00;;;;;6.77;100.00;103141.44;5015606;28;45442;-78
2023/01/23 07:40:48;;;;;;;;;58.75;41.50;;;;;6.77;100.00;103138.75;5017044;28;45317;-75
2023/01/23 07:43:14;;;;;;;;;57.50;43.75;;;;;6.76;100.00;103139.69;5034635;28;45380;-79
2023/01/23 07:45:39;;;;;;;;;52.50;44.75;;;;;6.75;100.00;103144.19;5016304;28;46690;-78
2023/01/23 07:48:05;;;;;;;;;64.75;45.00;;;;;6.78;100.00;103135.09;5022319;28;45336;-76
2023/01/23 07:50:30;;;;;;;;;66.50;48.00;;;;;6.86;100.00;103144.63;5022644;28;45481;-77
2023/01/23 07:52:55;;;;;;;;;70.75;51.75;;;;;6.43;100.00;103140.16;5022341;28;45385;-76
2023/01/23 07:55:21;;;;;;;;;65.75;43.25;;;;;6.42;100.00;103141.13;5016094;28;47056;-77
2023/01/23 07:57:46;;;;;;;;;63.25;46.50;;;;;6.43;100.00;103144.69;5017957;28;45359;-76
2023/01/23 08:00:12;;;;;;;;;51.50;42.25;;;;;6.36;100.00;103143.16;5022169;28;45338;-77
2023/01/23 08:02:37;;;;;;;;;62.50;44.75;;;;;6.42;100.00;103149.22;5015075;28;45906;-77
2023/01/23 08:05:03;;;;;;;;;46.75;33.75;;;;;6.35;100.00;103144.13;5018457;28;47708;-79
2023/01/23 08:07:28;;;;;;;;;62.75;48.75;;;;;6.32;100.00;103146.94;5016741;28;45523;-76
2023/01/23 08:09:54;;;;;;;;;66.00;41.75;;;;;6.46;100.00;103136.44;5018003;28;45325;-77
2023/01/23 08:12:19;;;;;;;;;67.00;49.25;;;;;6.70;100.00;103151.63;5032764;28;45521;-79
2023/01/23 08:14:46;;;;;;;;;60.50;42.75;;;;;6.65;100.00;103142.81;5019488;28;45392;-77
2023/01/23 08:17:11;;;;;;;;;66.50;51.25;;;;;6.54;100.00;103154.09;5012242;28;45426;-76
2023/01/23 08:19:37;;;;;;;;;69.00;47.50;;;;;6.58;100.00;103144.03;5012804;28;45424;-77
2023/01/23 08:22:03;;;;;;;;;61.75;46.50;;;;;6.42;100.00;103157.31;5011003;28;45334;-76
2023/01/23 08:24:28;;;;;;;;;63.75;47.00;;;;;6.38;100.00;103155.66;5009786;28;46332;-75
2023/01/23 08:26:53;;;;;;;;;67.75;48.75;;;;;6.33;100.00;103146.00;5007245;28;45397;-75
2023/01/23 08:29:19;;;;;;;;;44.50;40.25;;;;;6.30;100.00;103138.91;5032381;28;45346;-77
2023/01/23 08:31:44;;;;;;;;;58.50;47.00;;;;;6.50;100.00;103151.59;5014594;28;45856;-76
2023/01/23 08:34:09;;;;;;;;;54.00;46.00;;;;;6.52;100.00;103149.69;5017280;28;45346;-74
2023/01/23 08:36:35;;;;;;;;;62.50;46.50;;;;;6.48;100.00;103148.06;5012911;28;45301;-75
2023/01/23 08:39:00;;;;;;;;;56.25;45.25;;;;;6.38;100.00;103152.09;5021251;28;45391;-75
2023/01/23 08:41:26;;;;;;;;;67.00;46.25;;;;;6.58;100.00;103149.44;5014552;28;45362;-76
2023/01/23 08:43:51;;;;;;;;;60.00;42.25;;;;;6.72;100.00;103152.44;5022683;28;46540;-74
2023/01/23 08:46:16;;;;;;;;;60.75;41.50;;;;;6.37;100.00;103128.72;5012972;28;45362;-75
2023/01/23 08:48:42;;;;;;;;;63.00;44.50;;;;;6.47;100.00;103138.22;5011400;28;45253;-75
2023/01/23 08:51:11;;;;;;;;;55.75;43.75;;;;;6.65;100.00;103150.94;5015393;28;45330;-75
2023/01/23 08:53:36;;;;;;;;;63.50;46.25;;;;;6.70;100.00;103153.47;5022505;28;45519;-75
2023/01/23 08:56:05;;;;;;;;;67.50;50.50;;;;;6.94;100.00;103150.56;5014374;28;45595;-76
2023/01/23 08:58:30;;;;;;;;;63.00;47.00;;;;;7.00;100.00;103142.22;5020162;28;45358;-77
2023/01/23 09:00:56;;;;;;;;;56.50;44.25;;;;;6.86;100.00;103150.03;5035209;28;45649;-75
2023/01/23 09:03:22;;;;;;;;;53.50;44.50;;;;;6.77;100.00;103153.13;5019693;28;46712;-76
2023/01/23 09:05:47;;;;;;;;;65.50;49.00;;;;;6.67;100.00;103149.06;5014556;28;45446;-76
2023/01/23 09:08:13;;;;;;;;;57.25;44.25;;;;;6.70;100.00;103148.94;5022752;28;45341;-78
2023/01/23 09:10:38;;;;;;;;;55.00;44.25;;;;;7.01;100.00;103157.47;5014450;28;45638;-74
2023/01/23 09:13:04;;;;;;;;;65.00;45.25;;;;;7.05;100.00;103150.09;5013512;28;45344;-74
2023/01/23 09:15:29;;;;;;;;;62.50;45.00;;;;;7.24;100.00;103151.03;5014895;28;45492;-77
2023/01/23 09:17:55;;;;;;;;;61.75;44.75;;;;;7.09;100.00;103150.84;5014139;28;45519;-76
2023/01/23 09:20:20;;;;;;;;;64.50;46.50;;;;;6.95;100.00;103154.16;5015653;28;45250;-75
2023/01/23 09:22:45;;;;;;;;;53.50;43.00;;;;;6.98;100.00;103154.03;5011597;28;45872;-76
2023/01/23 09:25:13;;;;;;;;;32.25;26.25;;;;;6.84;100.00;103161.84;5013876;28;45363;-75
2023/01/23 09:27:38;;;;;;;;;64.00;46.25;;;;;6.87;100.00;103157.19;5017200;28;45526;-75
2023/01/23 09:30:04;;;;;;;;;59.75;43.75;;;;;7.12;100.00;103146.19;5028126;28;45375;-75
2023/01/23 09:32:29;;;;;;;;;62.25;42.00;;;;;7.25;100.00;103157.34;5012780;28;48189;-77
2023/01/23 09:34:55;;;;;;;;;45.50;43.00;;;;;7.09;100.00;103180.56;5013419;28;45328;-76
2023/01/23 09:37:20;;;;;;;;;41.75;34.50;;;;;6.86;100.00;103178.88;5014490;28;45374;-75
2023/01/23 09:39:46;;;;;;;;;48.50;43.75;;;;;6.85;100.00;103186.13;5012997;28;45535;-75
2023/01/23 09:42:20;;;;;;;;;57.50;42.75;;;;;6.82;100.00;103185.34;5012764;28;45321;-75
2023/01/23 09:44:54;;;;;;;;;65.00;40.25;;;;;7.11;100.00;103200.31;5017479;28;45312;-75
2023/01/23 09:47:31;;;;;;;;;53.75;42.00;;;;;7.41;100.00;103189.03;5017284;28;45449;-76
2023/01/23 09:50:06;;;;;;;;;70.50;50.50;;;;;7.24;100.00;103197.00;5014490;28;45328;-76
2023/01/23 09:52:41;;;;;;;;;60.25;46.50;;;;;7.29;100.00;103183.31;5033508;28;47999;-76
2023/01/23 09:55:21;;;;;;;;;50.75;41.00;;;;;7.17;100.00;103192.81;5017688;28;45396;-76
2023/01/23 09:57:54;;;;;;;;;44.75;40.00;;;;;6.94;100.00;103201.06;5016604;28;45342;-76
2023/01/23 10:00:30;;;;;;;;;50.50;41.50;;;;;7.15;100.00;103204.66;5016372;28;45522;-77
2023/01/23 10:02:57;;;;;;;;;51.00;34.50;;;;;7.09;100.00;103210.31;5015536;28;45598;-76
2023/01/23 10:05:43;;;;;;;;;53.75;39.50;;;;;7.01;100.00;103214.22;5016512;28;45337;-76
2023/01/23 10:08:20;;;;;;;;;37.50;24.50;;;;;7.23;100.00;103213.31;5017431;28;45353;-77
2023/01/23 10:11:09;;;;;;;;;63.00;45.75;;;;;7.19;100.00;103212.56;5017089;28;45289;-77
2023/01/23 10:14:00;;;;;;;;;61.00;40.50;;;;;7.24;100.00;103215.94;5013822;28;46593;-77
2023/01/23 10:16:48;;;;;;;;;41.50;31.25;;;;;7.21;100.00;103216.09;5001058;28;45310;-76
2023/01/23 10:19:38;;;;;;;;;58.50;43.00;;;;;7.25;100.00;103208.69;5019941;28;45369;-76
2023/01/23 10:22:32;;;;;;;;;33.75;29.25;;;;;7.32;100.00;103212.91;5012547;28;45458;-76
2023/01/23 10:24:59;;;;;;;;;48.25;39.75;;;;;7.34;100.00;103197.50;5033914;28;47323;-77
2023/01/23 10:27:37;;;;;;;;;50.00;35.00;;;;;7.37;100.00;103208.19;5014618;28;45333;-77
2023/01/23 10:30:21;;;;;;;;;49.00;40.50;;;;;7.24;100.00;103220.47;5013094;28;45258;-77
2023/01/23 10:33:00;;;;;;;;;54.25;39.50;;;;;7.50;100.00;103209.41;5031403;28;45380;-77
2023/01/23 10:35:54;;;;;;;;;57.25;42.25;;;;;7.33;100.00;103220.94;5026397;28;46126;-76
2023/01/23 10:38:20;;;;;;;;;73.00;53.00;;;;;7.41;100.00;103226.03;5016983;28;45406;-77
2023/01/23 10:43:30;;;;;;;;;54.00;43.50;;;;;7.59;100.00;103206.28;5024554;28;45431;-77
2023/01/23 10:45:56;;;;;;;;;53.25;40.00;;;;;7.58;100.00;103209.03;5020851;28;46209;-78
2023/01/23 10:48:45;;;;;;;;;52.50;43.00;;;;;7.23;100.00;103205.22;5024772;28;45323;-77
2023/01/23 10:51:38;;;;;;;;;57.50;43.00;;;;;7.24;100.00;103204.25;5016804;28;45299;-76
2023/01/23 10:54:20;;;;;;;;;60.75;44.50;;;;;7.21;100.00;103204.38;5016194;28;45360;-76
2023/01/23 10:56:57;;;;;;;;;52.75;39.00;;;;;7.43;100.00;103205.19;5019554;28;45478;-78
2023/01/23 10:59:34;;;;;;;;;49.75;42.00;;;;;7.33;100.00;103202.03;5017490;28;45338;-77
2023/01/23 11:02:11;;;;;;;;;37.75;32.00;;;;;7.28;100.00;103198.66;5021476;28;45441;-77
2023/01/23 11:04:37;;;;;;;;;52.00;41.25;;;;;7.45;100.00;103189.78;5018191;28;45414;-78
2023/01/23 11:07:14;;;;;;;;;38.50;35.25;;;;;7.56;100.00;103187.47;5015659;28;45379;-76
2023/01/23 11:09:47;;;;;;;;;50.50;38.75;;;;;7.56;100.00;103187.47;5017106;28;45405;-76
2023/01/23 11:12:33;;;;;;;;;49.75;39.50;;;;;7.69;100.00;103188.66;5012894;28;45388;-77
2023/01/23 11:15:22;;;;;;;;;57.75;43.25;;;;;7.76;100.00;103176.59;5018640;28;45244;-77
2023/01/23 11:17:49;;;;;;;;;42.50;31.25;;;;;7.55;100.00;103185.72;5028883;28;46618;-77
2023/01/23 11:20:36;;;;;;;;;42.50;29.50;;;;;7.50;100.00;103193.16;5019063;28;45268;-77